Time,TemperatureF,DewpointF,PressureIn,WindDirection,WindDirectionDegrees,WindSpeedMPH,WindSpeedGustMPH,Humidity,HourlyPrecipIn,Conditions,Clouds,dailyrainin,SolarRadiationWatts/m^2,SoftwareType,DateUTC
2013-09-17 00:04:00,41.1,35.0,30.20,NNW,329,4.0,6.0,78,0.00,,,0.00,0,weatherlink.com 1.10,2013-09-17 04:04:00,
2013-09-17 00:19:00,40.3,35.0,30.21,NNW,329,0.0,6.0,80,0.00,,,0.00,0,weatherlink.com 1.10,2013-09-17 04:19:00,
2013-09-17 00:34:00,40.3,35.0,30.21,NNW,329,5.0,7.0,80,0.00,,,0.00,0,weatherlink.com 1.10,2013-09-17 04:34:00,
2013-09-17 00:49:00,40.6,34.0,30.22,NNW,337,6.0,9.0,78,0.00,,,0.00,0,weatherlink.com 1.10,2013-09-17 04:49:00,
2013-09-17 01:04:00,40.3,34.0,30.23,NNW,341,5.0,6.0,78,0.00,,,0.00,0,weatherlink.com 1.10,2013-09-17 05:04:00,
2013-09-17 01:19:00,39.9,34.0,30.23,NNW,338,3.0,7.0,80,0.00,,,0.00,0,weatherlink.com 1.10,2013-09-17 05:19:00,
2013-09-17 01:34:00,39.3,34.0,30.23,NNW,338,0.0,8.0,82,0.00,,,0.00,0,weatherlink.com 1.10,2013-09-17 05:34:00,
2013-09-17 01:49:00,39.3,34.0,30.24,NNW,338,5.0,7.0,82,0.00,,,0.00,0,weatherlink.com 1.10,2013-09-17 05:49:00,
2013-09-17 02:04:00,39.2,34.0,30.25,NNW,336,0.0,7.0,82,0.00,,,0.00,0,weatherlink.com 1.10,2013-09-17 06:04:00,
2013-09-17 02:19:00,38.0,34.0,30.25,NNW,336,0.0,0.0,86,0.00,,,0.00,0,weatherlink.com 1.10,2013-09-17 06:19:00,
2013-09-17 02:34:00,37.8,34.0,30.25,NNW,337,0.0,0.0,87,0.00,,,0.00,0,weatherlink.com 1.10,2013-09-17 06:34:00,
2013-09-17 02:49:00,37.8,34.0,30.25,NNW,337,0.0,0.0,87,0.00,,,0.00,0,weatherlink.com 1.10,2013-09-17 06:49:00,
2013-09-17 03:04:00,37.5,34.0,30.25,NNW,336,0.0,0.0,88,0.00,,,0.00,0,weatherlink.com 1.10,2013-09-17 07:04:00,
2013-09-17 03:19:00,37.3,34.0,30.25,NNW,336,0.0,0.0,88,0.00,,,0.00,0,weatherlink.com 1.10,2013-09-17 07:19:00,
2013-09-17 03:34:00,37.3,34.0,30.26,NNW,337,0.0,0.0,89,0.00,,,0.00,0,weatherlink.com 1.10,2013-09-17 07:34:00,
2013-09-17 03:49:00,36.9,34.0,30.26,NNW,337,0.0,0.0,90,0.00,,,0.00,0,weatherlink.com 1.10,2013-09-17 07:49:00,
2013-09-17 04:04:00,36.9,34.0,30.26,NNW,337,0.0,0.0,90,0.00,,,0.00,0,weatherlink.com 1.10,2013-09-17 08:04:00,
2013-09-17 04:19:00,36.9,34.0,30.26,NNW,337,0.0,0.0,90,0.00,,,0.00,0,weatherlink.com 1.10,2013-09-17 08:19:00,
2013-09-17 04:34:00,36.6,34.0,30.27,NNW,337,0.0,0.0,91,0.00,,,0.00,0,weatherlink.com 1.10,2013-09-17 08:34:00,
2013-09-17 04:49:00,36.0,34.0,30.27,NNW,337,0.0,0.0,92,0.00,,,0.00,0,weatherlink.com 1.10,2013-09-17 08:49:00,
2013-09-17 05:04:00,36.0,34.0,30.27,NNW,337,0.0,0.0,93,0.00,,,0.00,0,weatherlink.com 1.10,2013-09-17 09:04:00,
2013-09-17 05:19:00,36.2,34.0,30.28,NNW,336,0.0,0.0,93,0.00,,,0.00,0,weatherlink.com 1.10,2013-09-17 09:19:00,
2013-09-17 05:34:00,36.5,35.0,30.28,NNW,337,0.0,0.0,93,0.00,,,0.00,0,weatherlink.com 1.10,2013-09-17 09:34:00,
2013-09-17 05:49:00,36.3,35.0,30.29,NNW,337,0.0,0.0,93,0.00,,,0.00,0,weatherlink.com 1.10,2013-09-17 09:49:00,
2013-09-17 06:04:00,36.3,34.0,30.29,NNW,336,0.0,0.0,92,0.00,,,0.00,0,weatherlink.com 1.10,2013-09-17 10:04:00,
2013-09-17 06:19:00,36.2,34.0,30.30,NNW,337,0.0,0.0,92,0.00,,,0.00,0,weatherlink.com 1.10,2013-09-17 10:19:00,
2013-09-17 06:34:00,36.2,34.0,30.30,NNW,337,0.0,1.0,92,0.00,,,0.00,5,weatherlink.com 1.10,2013-09-17 10:34:00,
2013-09-17 06:49:00,36.5,34.0,30.32,NNW,336,0.0,0.0,92,0.00,,,0.00,11,weatherlink.com 1.10,2013-09-17 10:49:00,
2013-09-17 07:04:00,36.9,35.0,30.32,NNW,336,0.0,4.0,92,0.00,,,0.00,12,weatherlink.com 1.10,2013-09-17 11:04:00,
2013-09-17 07:19:00,37.3,35.0,30.33,NNW,336,0.0,0.0,91,0.00,,,0.00,16,weatherlink.com 1.10,2013-09-17 11:19:00,
2013-09-17 07:34:00,37.8,35.0,30.33,NNW,337,0.0,2.0,90,0.00,,,0.00,19,weatherlink.com 1.10,2013-09-17 11:34:00,
2013-09-17 07:49:00,38.5,35.0,30.34,NNW,337,0.0,2.0,88,0.00,,,0.00,25,weatherlink.com 1.10,2013-09-17 11:49:00,
2013-09-17 08:04:00,39.6,36.0,30.34,NNW,337,0.0,6.0,85,0.00,,,0.00,28,weatherlink.com 1.10,2013-09-17 12:04:00,
2013-09-17 08:19:00,40.9,36.0,30.35,NW,315,5.0,7.0,82,0.00,,,0.00,30,weatherlink.com 1.10,2013-09-17 12:19:00,
2013-09-17 08:34:00,42.2,36.0,30.35,NNW,339,2.0,10.0,80,0.00,,,0.00,35,weatherlink.com 1.10,2013-09-17 12:34:00,
2013-09-17 08:50:00,43.5,37.0,30.36,NNW,331,0.0,6.0,79,0.00,,,0.00,35,weatherlink.com 1.10,2013-09-17 12:50:00,
2013-09-17 09:05:00,44.6,38.0,30.36,WNW,290,0.0,6.0,78,0.00,,,0.00,40,weatherlink.com 1.10,2013-09-17 13:05:00,
2013-09-17 09:20:00,46.2,38.0,30.37,NNW,328,9.0,11.0,72,0.00,,,0.00,42,weatherlink.com 1.10,2013-09-17 13:20:00,
2013-09-17 09:35:00,47.7,37.0,30.37,North,-999,0.0,11.0,67,0.00,,,0.00,53,weatherlink.com 1.10,2013-09-17 13:35:00,
2013-09-17 09:50:00,48.9,38.0,30.37,NNW,348,3.0,12.0,65,0.00,,,0.00,91,weatherlink.com 1.10,2013-09-17 13:50:00,
2013-09-17 10:05:00,50.1,38.0,30.38,NNE,25,0.0,11.0,64,0.00,,,0.00,596,weatherlink.com 1.10,2013-09-17 14:05:00,
2013-09-17 10:20:00,51.7,36.0,30.37,North,11,5.0,12.0,55,0.00,,,0.00,635,weatherlink.com 1.10,2013-09-17 14:20:00,
2013-09-17 10:35:00,52.6,38.0,30.37,NNW,342,11.0,12.0,57,0.00,,,0.00,652,weatherlink.com 1.10,2013-09-17 14:35:00,
2013-09-17 10:50:00,53.2,38.0,30.38,NNW,339,10.0,12.0,56,0.00,,,0.00,679,weatherlink.com 1.10,2013-09-17 14:50:00,
2013-09-17 11:05:00,53.3,36.0,30.38,NNW,339,8.0,12.0,52,0.00,,,0.00,701,weatherlink.com 1.10,2013-09-17 15:05:00,
2013-09-17 11:20:00,53.8,38.0,30.38,NW,314,9.0,11.0,56,0.00,,,0.00,721,weatherlink.com 1.10,2013-09-17 15:20:00,
2013-09-17 11:35:00,53.9,37.0,30.37,NNW,333,8.0,11.0,54,0.00,,,0.00,737,weatherlink.com 1.10,2013-09-17 15:35:00,
2013-09-17 11:50:00,55.1,38.0,30.37,NNW,340,0.0,11.0,52,0.00,,,0.00,751,weatherlink.com 1.10,2013-09-17 15:50:00,
2013-09-17 12:05:00,55.7,40.0,30.37,NW,326,4.0,10.0,56,0.00,,,0.00,759,weatherlink.com 1.10,2013-09-17 16:05:00,
2013-09-17 12:20:00,56.3,39.0,30.37,West,275,6.0,9.0,52,0.00,,,0.00,766,weatherlink.com 1.10,2013-09-17 16:20:00,
2013-09-17 12:35:00,56.6,39.0,30.36,NW,312,6.0,13.0,52,0.00,,,0.00,761,weatherlink.com 1.10,2013-09-17 16:35:00,
2013-09-17 12:50:00,57.8,40.0,30.36,West,279,0.0,10.0,51,0.00,,,0.00,742,weatherlink.com 1.10,2013-09-17 16:50:00,
2013-09-17 13:05:00,57.2,39.0,30.35,NW,322,5.0,8.0,51,0.00,,,0.00,691,weatherlink.com 1.10,2013-09-17 17:05:00,
2013-09-17 13:20:00,57.6,38.0,30.35,North,-999,0.0,12.0,48,0.00,,,0.00,737,weatherlink.com 1.10,2013-09-17 17:20:00,
2013-09-17 13:35:00,58.1,36.0,30.34,North,-999,0.0,9.0,44,0.00,,,0.00,724,weatherlink.com 1.10,2013-09-17 17:35:00,
2013-09-17 13:50:00,59.2,38.0,30.34,NNE,13,4.0,10.0,46,0.00,,,0.00,714,weatherlink.com 1.10,2013-09-17 17:50:00,
2013-09-17 14:05:00,59.0,40.0,30.34,NNE,16,7.0,9.0,50,0.00,,,0.00,698,weatherlink.com 1.10,2013-09-17 18:05:00,
2013-09-17 14:20:00,59.5,40.0,30.33,NNW,340,5.0,10.0,48,0.00,,,0.00,680,weatherlink.com 1.10,2013-09-17 18:20:00,
2013-09-17 14:35:00,59.3,38.0,30.32,WNW,288,6.0,9.0,46,0.00,,,0.00,661,weatherlink.com 1.10,2013-09-17 18:35:00,
2013-09-17 14:50:00,59.9,37.0,30.32,NW,311,3.0,9.0,43,0.00,,,0.00,635,weatherlink.com 1.10,2013-09-17 18:50:00,
2013-09-17 15:05:00,59.9,38.0,30.32,North,5,2.0,7.0,44,0.00,,,0.00,605,weatherlink.com 1.10,2013-09-17 19:05:00,
2013-09-17 15:20:00,60.7,40.0,30.31,NW,317,5.0,8.0,46,0.00,,,0.00,575,weatherlink.com 1.10,2013-09-17 19:20:00,
2013-09-17 15:35:00,60.9,39.0,30.31,WNW,300,4.0,7.0,44,0.00,,,0.00,540,weatherlink.com 1.10,2013-09-17 19:35:00,
2013-09-17 15:51:00,61.2,39.0,30.30,NE,35,0.0,7.0,44,0.00,,,0.00,504,weatherlink.com 1.10,2013-09-17 19:51:00,
2013-09-17 16:06:00,61.3,39.0,30.30,North,5,2.0,8.0,44,0.00,,,0.00,462,weatherlink.com 1.10,2013-09-17 20:06:00,
2013-09-17 16:21:00,61.2,38.0,30.29,NNW,344,3.0,7.0,42,0.00,,,0.00,420,weatherlink.com 1.10,2013-09-17 20:21:00,
2013-09-17 16:36:00,62.0,41.0,30.29,NNW,344,2.0,4.0,46,0.00,,,0.00,376,weatherlink.com 1.10,2013-09-17 20:36:00,
2013-09-17 16:51:00,61.2,40.0,30.29,North,355,0.0,4.0,45,0.00,,,0.00,332,weatherlink.com 1.10,2013-09-17 20:51:00,
2013-09-17 17:06:00,60.7,41.0,30.29,North,355,1.0,5.0,49,0.00,,,0.00,283,weatherlink.com 1.10,2013-09-17 21:06:00,
2013-09-17 17:21:00,61.2,38.0,30.29,West,259,0.0,1.0,43,0.00,,,0.00,236,weatherlink.com 1.10,2013-09-17 21:21:00,
2013-09-17 17:36:00,60.9,43.0,30.29,West,259,0.0,4.0,52,0.00,,,0.00,188,weatherlink.com 1.10,2013-09-17 21:36:00,
2013-09-17 17:51:00,60.2,41.0,30.29,West,259,0.0,2.0,49,0.00,,,0.00,144,weatherlink.com 1.10,2013-09-17 21:51:00,
2013-09-17 18:06:00,58.9,47.0,30.29,West,259,0.0,1.0,66,0.00,,,0.00,98,weatherlink.com 1.10,2013-09-17 22:06:00,
2013-09-17 18:21:00,57.2,46.0,30.29,West,259,0.0,0.0,67,0.00,,,0.00,54,weatherlink.com 1.10,2013-09-17 22:21:00,
2013-09-17 18:36:00,55.7,45.0,30.28,West,259,0.0,0.0,67,0.00,,,0.00,19,weatherlink.com 1.10,2013-09-17 22:36:00,
2013-09-17 18:51:00,53.9,45.0,30.27,West,259,0.0,0.0,73,0.00,,,0.00,5,weatherlink.com 1.10,2013-09-17 22:51:00,
2013-09-17 19:06:00,52.5,45.0,30.27,West,259,0.0,0.0,76,0.00,,,0.00,0,weatherlink.com 1.10,2013-09-17 23:06:00,
2013-09-17 19:21:00,52.2,45.0,30.27,West,259,0.0,2.0,76,0.00,,,0.00,0,weatherlink.com 1.10,2013-09-17 23:21:00,
2013-09-17 19:36:00,52.2,43.0,30.28,WSW,248,0.0,1.0,72,0.00,,,0.00,0,weatherlink.com 1.10,2013-09-17 23:36:00,
2013-09-17 19:51:00,51.6,44.0,30.28,SSW,213,1.0,5.0,74,0.00,,,0.00,0,weatherlink.com 1.10,2013-09-17 23:51:00,
2013-09-17 20:06:00,50.8,42.0,30.28,SSW,213,2.0,2.0,73,0.00,,,0.00,0,weatherlink.com 1.10,2013-09-18 00:06:00,
2013-09-17 20:21:00,50.4,43.0,30.29,SSW,213,3.0,4.0,75,0.00,,,0.00,0,weatherlink.com 1.10,2013-09-18 00:21:00,
2013-09-17 20:36:00,49.2,44.0,30.29,SSW,213,0.0,0.0,81,0.00,,,0.00,0,weatherlink.com 1.10,2013-09-18 00:36:00,
2013-09-17 20:51:00,49.6,42.0,30.29,SSW,211,0.0,2.0,76,0.00,,,0.00,0,weatherlink.com 1.10,2013-09-18 00:51:00,
2013-09-17 21:06:00,50.1,44.0,30.29,SSW,211,0.0,4.0,78,0.00,,,0.00,0,weatherlink.com 1.10,2013-09-18 01:06:00,
2013-09-17 21:21:00,49.4,44.0,30.29,SSW,211,0.0,4.0,82,0.00,,,0.00,0,weatherlink.com 1.10,2013-09-18 01:21:00,
2013-09-17 21:36:00,48.3,44.0,30.28,SSW,211,0.0,5.0,84,0.00,,,0.00,0,weatherlink.com 1.10,2013-09-18 01:36:00,
2013-09-17 21:51:00,48.0,44.0,30.28,SSW,211,0.0,6.0,85,0.00,,,0.00,0,weatherlink.com 1.10,2013-09-18 01:51:00,
2013-09-17 22:06:00,48.3,43.0,30.28,SSW,211,0.0,5.0,83,0.00,,,0.00,0,weatherlink.com 1.10,2013-09-18 02:06:00,
2013-09-17 22:21:00,48.3,43.0,30.28,SSW,211,0.0,4.0,83,0.00,,,0.00,0,weatherlink.com 1.10,2013-09-18 02:21:00,
2013-09-17 22:36:00,47.3,43.0,30.29,SSW,209,0.0,6.0,85,0.00,,,0.00,0,weatherlink.com 1.10,2013-09-18 02:36:00,
2013-09-17 22:51:00,47.7,43.0,30.28,SSW,209,0.0,0.0,82,0.00,,,0.00,0,weatherlink.com 1.10,2013-09-18 02:51:00,
2013-09-17 23:06:00,47.1,42.0,30.28,SSW,209,0.0,4.0,83,0.00,,,0.00,0,weatherlink.com 1.10,2013-09-18 03:06:00,
2013-09-17 23:21:00,47.1,42.0,30.29,SSW,210,4.0,6.0,83,0.00,,,0.00,0,weatherlink.com 1.10,2013-09-18 03:21:00,
2013-09-17 23:36:00,47.4,42.0,30.28,SSW,210,0.0,6.0,81,0.00,,,0.00,0,weatherlink.com 1.10,2013-09-18 03:36:00,
2013-09-17 23:51:00,46.4,42.0,30.28,SSW,210,0.0,0.0,84,0.00,,,0.00,0,weatherlink.com 1.10,2013-09-18 03:51:00,